sensor_id;sensor_type;location;lat;lon;timestamp;pressure;altitude;pressure_sealevel;temperature;humidity
77003;BME280;65939;50.060;14.288;2022-12-13T00:00:00;96819.22;;;-6.11;74.59
77003;BME280;65939;50.060;14.288;2022-12-13T00:00:30;96830.22;;;-6.11;74.56
77003;BME280;65939;50.060;14.288;2022-12-13T00:01:09;96816.72;;;-6.13;74.93
77003;BME280;65939;50.060;14.288;2022-12-13T00:01:40;96817.56;;;-6.12;75.08
77003;BME280;65939;50.060;14.288;2022-12-13T00:02:10;96822.63;;;-6.12;75.25
77003;BME280;65939;50.060;14.288;2022-12-13T00:02:41;96825.16;;;-6.12;74.97
77003;BME280;65939;50.060;14.288;2022-12-13T00:03:11;96813.38;;;-6.13;74.87
77003;BME280;65939;50.060;14.288;2022-12-13T00:03:42;96815.09;;;-6.14;74.55
77003;BME280;65939;50.060;14.288;2022-12-13T00:04:13;96825.25;;;-6.14;74.74
77003;BME280;65939;50.060;14.288;2022-12-13T00:04:43;96817.63;;;-6.14;74.53
77003;BME280;65939;50.060;14.288;2022-12-13T00:05:14;96822.78;;;-6.15;74.58
77003;BME280;65939;50.060;14.288;2022-12-13T00:05:45;96823.63;;;-6.15;74.69
77003;BME280;65939;50.060;14.288;2022-12-13T00:06:16;96823.63;;;-6.15;74.71
77003;BME280;65939;50.060;14.288;2022-12-13T00:06:47;96828.69;;;-6.15;74.91
77003;BME280;65939;50.060;14.288;2022-12-13T00:07:17;96830.41;;;-6.15;74.62
77003;BME280;65939;50.060;14.288;2022-12-13T00:07:48;96823.66;;;-6.16;74.79
77003;BME280;65939;50.060;14.288;2022-12-13T00:08:19;96828.69;;;-6.15;75.01
77003;BME280;65939;50.060;14.288;2022-12-13T00:08:49;96824.47;;;-6.16;75.19
77003;BME280;65939;50.060;14.288;2022-12-13T00:09:20;96824.47;;;-6.16;74.77
77003;BME280;65939;50.060;14.288;2022-12-13T00:09:51;96827.91;;;-6.17;74.75
77003;BME280;65939;50.060;14.288;2022-12-13T00:10:21;96821.13;;;-6.16;74.88
77003;BME280;65939;50.060;14.288;2022-12-13T00:10:59;96827.09;;;-6.17;74.52
77003;BME280;65939;50.060;14.288;2022-12-13T00:11:30;96825.38;;;-6.17;74.78
77003;BME280;65939;50.060;14.288;2022-12-13T00:12:01;96826.28;;;-6.18;74.94
77003;BME280;65939;50.060;14.288;2022-12-13T00:12:32;96824.56;;;-6.17;74.61
77003;BME280;65939;50.060;14.288;2022-12-13T00:13:02;96825.44;;;-6.18;74.66
77003;BME280;65939;50.060;14.288;2022-12-13T00:13:33;96820.38;;;-6.18;74.63
77003;BME280;65939;50.060;14.288;2022-12-13T00:14:04;96822.09;;;-6.19;74.89
77003;BME280;65939;50.060;14.288;2022-12-13T00:14:35;96822.00;;;-6.17;74.91
77003;BME280;65939;50.060;14.288;2022-12-13T00:15:05;96822.91;;;-6.18;74.56
77003;BME280;65939;50.060;14.288;2022-12-13T00:15:37;96822.09;;;-6.19;74.75
77003;BME280;65939;50.060;14.288;2022-12-13T00:16:11;96818.69;;;-6.19;74.49
77003;BME280;65939;50.060;14.288;2022-12-13T00:16:46;96822.97;;;-6.20;74.98
77003;BME280;65939;50.060;14.288;2022-12-13T00:17:18;96823.78;;;-6.19;74.61
77003;BME280;65939;50.060;14.288;2022-12-13T00:17:48;96820.41;;;-6.20;74.97
77003;BME280;65939;50.060;14.288;2022-12-13T00:18:19;96819.59;;;-6.20;75.03
77003;BME280;65939;50.060;14.288;2022-12-13T00:18:53;96817.97;;;-6.21;74.47
77003;BME280;65939;50.060;14.288;2022-12-13T00:19:24;96816.31;;;-6.22;74.51
77003;BME280;65939;50.060;14.288;2022-12-13T00:19:55;96811.25;;;-6.22;74.68
77003;BME280;65939;50.060;14.288;2022-12-13T00:20:25;96818.78;;;-6.21;74.53
77003;BME280;65939;50.060;14.288;2022-12-13T00:20:56;96817.97;;;-6.21;74.84
77003;BME280;65939;50.060;14.288;2022-12-13T00:21:30;96820.50;;;-6.21;74.79
77003;BME280;65939;50.060;14.288;2022-12-13T00:22:01;96815.41;;;-6.21;74.54
77003;BME280;65939;50.060;14.288;2022-12-13T00:22:31;96811.25;;;-6.22;74.91
77003;BME280;65939;50.060;14.288;2022-12-13T00:23:02;96819.69;;;-6.22;74.66
77003;BME280;65939;50.060;14.288;2022-12-13T00:23:33;96810.34;;;-6.21;74.57
77003;BME280;65939;50.060;14.288;2022-12-13T00:24:05;96814.59;;;-6.22;75.23
77003;BME280;65939;50.060;14.288;2022-12-13T00:24:36;96811.25;;;-6.22;74.54
77003;BME280;65939;50.060;14.288;2022-12-13T00:25:07;96823.03;;;-6.21;74.53
77003;BME280;65939;50.060;14.288;2022-12-13T00:25:37;96816.31;;;-6.22;75.04
77003;BME280;65939;50.060;14.288;2022-12-13T00:26:13;96811.25;;;-6.22;75.01
77003;BME280;65939;50.060;14.288;2022-12-13T00:26:45;96817.13;;;-6.22;74.81
77003;BME280;65939;50.060;14.288;2022-12-13T00:27:15;96819.72;;;-6.23;74.84
77003;BME280;65939;50.060;14.288;2022-12-13T00:27:46;96818.00;;;-6.23;74.78
77003;BME280;65939;50.060;14.288;2022-12-13T00:28:16;96817.97;;;-6.21;74.49
77003;BME280;65939;50.060;14.288;2022-12-13T00:28:48;96817.19;;;-6.23;74.71
77003;BME280;65939;50.060;14.288;2022-12-13T00:29:20;96812.94;;;-6.23;74.92
77003;BME280;65939;50.060;14.288;2022-12-13T00:29:51;96816.31;;;-6.22;74.87
77003;BME280;65939;50.060;14.288;2022-12-13T00:30:21;96812.09;;;-6.23;74.59
77003;BME280;65939;50.060;14.288;2022-12-13T00:30:58;96817.19;;;-6.23;74.81
77003;BME280;65939;50.060;14.288;2022-12-13T00:31:29;96816.31;;;-6.22;74.71
77003;BME280;65939;50.060;14.288;2022-12-13T00:32:03;96819.72;;;-6.23;74.53
77003;BME280;65939;50.060;14.288;2022-12-13T00:32:33;96807.03;;;-6.23;74.79
77003;BME280;65939;50.060;14.288;2022-12-13T00:33:04;96813.81;;;-6.24;74.79
77003;BME280;65939;50.060;14.288;2022-12-13T00:33:38;96811.28;;;-6.24;74.96
77003;BME280;65939;50.060;14.288;2022-12-13T00:34:09;96814.66;;;-6.23;74.81
77003;BME280;65939;50.060;14.288;2022-12-13T00:34:40;96813.00;;;-6.24;74.68
77003;BME280;65939;50.060;14.288;2022-12-13T00:35:10;96818.09;;;-6.24;74.55
77003;BME280;65939;50.060;14.288;2022-12-13T00:35:41;96811.28;;;-6.24;74.57
77003;BME280;65939;50.060;14.288;2022-12-13T00:36:12;96813.91;;;-6.25;74.62
77003;BME280;65939;50.060;14.288;2022-12-13T00:36:43;96816.44;;;-6.25;74.63
77003;BME280;65939;50.060;14.288;2022-12-13T00:37:14;96815.53;;;-6.24;74.73
77003;BME280;65939;50.060;14.288;2022-12-13T00:37:44;96816.44;;;-6.25;74.99
77003;BME280;65939;50.060;14.288;2022-12-13T00:38:15;96814.78;;;-6.27;74.98
77003;BME280;65939;50.060;14.288;2022-12-13T00:38:45;96812.19;;;-6.25;74.87
77003;BME280;65939;50.060;14.288;2022-12-13T00:39:16;96810.53;;;-6.26;74.52
77003;BME280;65939;50.060;14.288;2022-12-13T00:39:48;96818.16;;;-6.26;74.89
77003;BME280;65939;50.060;14.288;2022-12-13T00:40:18;96815.63;;;-6.26;74.57
77003;BME280;65939;50.060;14.288;2022-12-13T00:40:50;96815.63;;;-6.26;74.71
77003;BME280;65939;50.060;14.288;2022-12-13T00:41:21;96816.50;;;-6.27;74.71
77003;BME280;65939;50.060;14.288;2022-12-13T00:41:52;96818.22;;;-6.28;75.06
77003;BME280;65939;50.060;14.288;2022-12-13T00:42:23;96812.22;;;-6.27;74.86
77003;BME280;65939;50.060;14.288;2022-12-13T00:42:53;96817.31;;;-6.27;74.93
77003;BME280;65939;50.060;14.288;2022-12-13T00:43:24;96812.22;;;-6.27;75.11
77003;BME280;65939;50.060;14.288;2022-12-13T00:43:54;96814.78;;;-6.27;74.85
77003;BME280;65939;50.060;14.288;2022-12-13T00:44:25;96814.78;;;-6.27;74.57
77003;BME280;65939;50.060;14.288;2022-12-13T00:44:56;96813.94;;;-6.27;75.01
77003;BME280;65939;50.060;14.288;2022-12-13T00:45:26;96809.69;;;-6.27;75.03
77003;BME280;65939;50.060;14.288;2022-12-13T00:45:58;96815.63;;;-6.26;74.88
77003;BME280;65939;50.060;14.288;2022-12-13T00:46:29;96815.63;;;-6.26;74.98
77003;BME280;65939;50.060;14.288;2022-12-13T00:46:59;96821.44;;;-6.24;74.63
77003;BME280;65939;50.060;14.288;2022-12-13T00:47:30;96816.44;;;-6.25;75.09
77003;BME280;65939;50.060;14.288;2022-12-13T00:48:01;96816.44;;;-6.25;75.08
77003;BME280;65939;50.060;14.288;2022-12-13T00:48:31;96816.44;;;-6.25;74.80
77003;BME280;65939;50.060;14.288;2022-12-13T00:49:03;96824.00;;;-6.24;75.00
77003;BME280;65939;50.060;14.288;2022-12-13T00:49:33;96813.00;;;-6.24;75.20
77003;BME280;65939;50.060;14.288;2022-12-13T00:50:05;96822.25;;;-6.23;75.00
77003;BME280;65939;50.060;14.288;2022-12-13T00:50:36;96826.53;;;-6.24;74.82
77003;BME280;65939;50.060;14.288;2022-12-13T00:51:09;96818.09;;;-6.24;74.79
77003;BME280;65939;50.060;14.288;2022-12-13T00:51:40;96818.91;;;-6.24;75.07
77003;BME280;65939;50.060;14.288;2022-12-13T00:52:10;96818.09;;;-6.24;74.63
77003;BME280;65939;50.060;14.288;2022-12-13T00:52:41;96822.25;;;-6.23;75.10
77003;BME280;65939;50.060;14.288;2022-12-13T00:53:11;96812.19;;;-6.25;74.98
77003;BME280;65939;50.060;14.288;2022-12-13T00:53:42;96824.00;;;-6.24;74.81
77003;BME280;65939;50.060;14.288;2022-12-13T00:54:13;96816.44;;;-6.25;74.87
77003;BME280;65939;50.060;14.288;2022-12-13T00:54:44;96816.44;;;-6.25;74.65
77003;BME280;65939;50.060;14.288;2022-12-13T00:55:14;96821.44;;;-6.24;74.93
77003;BME280;65939;50.060;14.288;2022-12-13T00:55:45;96819.81;;;-6.25;75.21
77003;BME280;65939;50.060;14.288;2022-12-13T00:56:18;96815.53;;;-6.24;75.03
77003;BME280;65939;50.060;14.288;2022-12-13T00:56:50;96817.25;;;-6.25;74.81
77003;BME280;65939;50.060;14.288;2022-12-13T00:57:21;96814.66;;;-6.23;74.66
77003;BME280;65939;50.060;14.288;2022-12-13T00:57:52;96822.25;;;-6.23;75.09
77003;BME280;65939;50.060;14.288;2022-12-13T00:58:22;96824.81;;;-6.23;74.77
77003;BME280;65939;50.060;14.288;2022-12-13T00:58:54;96815.53;;;-6.24;75.16
77003;BME280;65939;50.060;14.288;2022-12-13T00:59:24;96813.00;;;-6.24;74.82
77003;BME280;65939;50.060;14.288;2022-12-13T00:59:55;96811.28;;;-6.24;75.02
77003;BME280;65939;50.060;14.288;2022-12-13T01:00:26;96816.38;;;-6.24;75.17
77003;BME280;65939;50.060;14.288;2022-12-13T01:01:07;96812.94;;;-6.23;75.19
77003;BME280;65939;50.060;14.288;2022-12-13T01:01:38;96820.53;;;-6.23;75.19
77003;BME280;65939;50.060;14.288;2022-12-13T01:02:09;96813.78;;;-6.22;75.21
77003;BME280;65939;50.060;14.288;2022-12-13T01:02:39;96812.06;;;-6.22;75.20
77003;BME280;65939;50.060;14.288;2022-12-13T01:03:11;96806.97;;;-6.22;75.29
77003;BME280;65939;50.060;14.288;2022-12-13T01:03:56;96808.63;;;-6.21;75.05
77003;BME280;65939;50.060;14.288;2022-12-13T01:04:27;96812.88;;;-6.21;75.04
77003;BME280;65939;50.060;14.288;2022-12-13T01:04:58;96817.88;;;-6.20;75.47
77003;BME280;65939;50.060;14.288;2022-12-13T01:05:28;96812.88;;;-6.21;74.88
77003;BME280;65939;50.060;14.288;2022-12-13T01:05:59;96813.69;;;-6.21;75.29
77003;BME280;65939;50.060;14.288;2022-12-13T01:06:36;96817.84;;;-6.18;74.88
77003;BME280;65939;50.060;14.288;2022-12-13T01:07:08;96817.88;;;-6.20;74.84
77003;BME280;65939;50.060;14.288;2022-12-13T01:07:39;96818.69;;;-6.19;75.21
77003;BME280;65939;50.060;14.288;2022-12-13T01:08:14;96816.16;;;-6.19;74.95
77003;BME280;65939;50.060;14.288;2022-12-13T01:08:46;96820.41;;;-6.20;74.98
77003;BME280;65939;50.060;14.288;2022-12-13T01:09:20;96821.25;;;-6.19;75.10
77003;BME280;65939;50.060;14.288;2022-12-13T01:09:51;96820.41;;;-6.20;75.25
77003;BME280;65939;50.060;14.288;2022-12-13T01:10:22;96814.53;;;-6.20;75.21
77003;BME280;65939;50.060;14.288;2022-12-13T01:10:53;96822.13;;;-6.20;74.99
77003;BME280;65939;50.060;14.288;2022-12-13T01:11:24;96824.69;;;-6.20;74.93
77003;BME280;65939;50.060;14.288;2022-12-13T01:12:00;96817.06;;;-6.20;74.96
77003;BME280;65939;50.060;14.288;2022-12-13T01:12:30;96817.06;;;-6.20;74.74
77003;BME280;65939;50.060;14.288;2022-12-13T01:13:01;96826.31;;;-6.19;75.33
77003;BME280;65939;50.060;14.288;2022-12-13T01:13:32;96818.78;;;-6.21;75.22
77003;BME280;65939;50.060;14.288;2022-12-13T01:14:03;96817.06;;;-6.20;74.97
77003;BME280;65939;50.060;14.288;2022-12-13T01:14:35;96813.69;;;-6.21;74.64
77003;BME280;65939;50.060;14.288;2022-12-13T01:15:06;96815.41;;;-6.21;75.07
77003;BME280;65939;50.060;14.288;2022-12-13T01:15:44;96815.41;;;-6.21;74.96
77003;BME280;65939;50.060;14.288;2022-12-13T01:16:15;96821.31;;;-6.21;75.04
77003;BME280;65939;50.060;14.288;2022-12-13T01:16:45;96814.59;;;-6.22;74.89
77003;BME280;65939;50.060;14.288;2022-12-13T01:17:16;96821.31;;;-6.21;75.30
77003;BME280;65939;50.060;14.288;2022-12-13T01:17:46;96811.16;;;-6.21;75.01
77003;BME280;65939;50.060;14.288;2022-12-13T01:18:18;96814.59;;;-6.22;75.07
77003;BME280;65939;50.060;14.288;2022-12-13T01:18:49;96818.78;;;-6.21;75.14
77003;BME280;65939;50.060;14.288;2022-12-13T01:19:21;96810.34;;;-6.21;75.06
77003;BME280;65939;50.060;14.288;2022-12-13T01:19:52;96815.41;;;-6.21;74.69
77003;BME280;65939;50.060;14.288;2022-12-13T01:20:22;96817.97;;;-6.21;74.86
77003;BME280;65939;50.060;14.288;2022-12-13T01:21:02;96815.41;;;-6.21;75.02
77003;BME280;65939;50.060;14.288;2022-12-13T01:21:34;96815.47;;;-6.23;74.85
77003;BME280;65939;50.060;14.288;2022-12-13T01:22:05;96817.19;;;-6.23;75.16
77003;BME280;65939;50.060;14.288;2022-12-13T01:22:36;96816.31;;;-6.22;74.81
77003;BME280;65939;50.060;14.288;2022-12-13T01:23:07;96814.66;;;-6.23;75.08
77003;BME280;65939;50.060;14.288;2022-12-13T01:23:38;96814.66;;;-6.23;75.08
77003;BME280;65939;50.060;14.288;2022-12-13T01:24:09;96809.56;;;-6.23;74.77
77003;BME280;65939;50.060;14.288;2022-12-13T01:24:40;96819.72;;;-6.23;74.75
77003;BME280;65939;50.060;14.288;2022-12-13T01:25:10;96811.28;;;-6.24;74.86
77003;BME280;65939;50.060;14.288;2022-12-13T01:25:41;96824.00;;;-6.24;74.93
77003;BME280;65939;50.060;14.288;2022-12-13T01:26:15;96812.94;;;-6.23;75.17
77003;BME280;65939;50.060;14.288;2022-12-13T01:26:46;96815.53;;;-6.24;74.78
77003;BME280;65939;50.060;14.288;2022-12-13T01:27:17;96819.72;;;-6.23;75.21
77003;BME280;65939;50.060;14.288;2022-12-13T01:27:47;96813.00;;;-6.24;75.12
77003;BME280;65939;50.060;14.288;2022-12-13T01:28:18;96817.25;;;-6.25;75.02
77003;BME280;65939;50.060;14.288;2022-12-13T01:28:49;96820.63;;;-6.24;75.01
77003;BME280;65939;50.060;14.288;2022-12-13T01:29:20;96818.09;;;-6.24;75.04
77003;BME280;65939;50.060;14.288;2022-12-13T01:29:51;96819.81;;;-6.25;75.13
77003;BME280;65939;50.060;14.288;2022-12-13T01:30:22;96817.25;;;-6.25;75.22
77003;BME280;65939;50.060;14.288;2022-12-13T01:31:21;96813.09;;;-6.26;75.08
77003;BME280;65939;50.060;14.288;2022-12-13T01:31:52;96816.44;;;-6.25;75.05
77003;BME280;65939;50.060;14.288;2022-12-13T01:32:23;96816.44;;;-6.25;75.21
77003;BME280;65939;50.060;14.288;2022-12-13T01:32:54;96811.38;;;-6.25;74.95
77003;BME280;65939;50.060;14.288;2022-12-13T01:33:25;96815.53;;;-6.24;74.92
77003;BME280;65939;50.060;14.288;2022-12-13T01:33:56;96812.22;;;-6.27;74.78
77003;BME280;65939;50.060;14.288;2022-12-13T01:34:27;96816.44;;;-6.25;75.28
77003;BME280;65939;50.060;14.288;2022-12-13T01:34:57;96816.44;;;-6.25;75.33
77003;BME280;65939;50.060;14.288;2022-12-13T01:35:28;96813.91;;;-6.25;74.84
77003;BME280;65939;50.060;14.288;2022-12-13T01:36:04;96816.44;;;-6.25;75.07
77003;BME280;65939;50.060;14.288;2022-12-13T01:36:35;96807.09;;;-6.25;75.39
77003;BME280;65939;50.060;14.288;2022-12-13T01:37:06;96808.75;;;-6.24;75.19
77003;BME280;65939;50.060;14.288;2022-12-13T01:37:37;96814.66;;;-6.23;74.78
77003;BME280;65939;50.060;14.288;2022-12-13T01:38:07;96813.00;;;-6.24;75.03
77003;BME280;65939;50.060;14.288;2022-12-13T01:38:38;96811.28;;;-6.24;75.15
77003;BME280;65939;50.060;14.288;2022-12-13T01:39:11;96810.38;;;-6.23;74.97
77003;BME280;65939;50.060;14.288;2022-12-13T01:39:42;96810.38;;;-6.23;74.92
77003;BME280;65939;50.060;14.288;2022-12-13T01:40:12;96816.31;;;-6.22;74.89
77003;BME280;65939;50.060;14.288;2022-12-13T01:40:49;96812.09;;;-6.23;75.19
77003;BME280;65939;50.060;14.288;2022-12-13T01:41:20;96804.47;;;-6.23;74.88
77003;BME280;65939;50.060;14.288;2022-12-13T01:41:52;96815.47;;;-6.23;74.80
77003;BME280;65939;50.060;14.288;2022-12-13T01:42:29;96813.78;;;-6.22;75.22
77003;BME280;65939;50.060;14.288;2022-12-13T01:43:01;96811.25;;;-6.22;75.35
77003;BME280;65939;50.060;14.288;2022-12-13T01:45:26;96804.34;;;-6.20;75.06
77003;BME280;65939;50.060;14.288;2022-12-13T01:45:57;96805.19;;;-6.20;75.13
77003;BME280;65939;50.060;14.288;2022-12-13T01:46:31;96813.63;;;-6.19;75.39
77003;BME280;65939;50.060;14.288;2022-12-13T01:47:01;96806.00;;;-6.19;74.90
77003;BME280;65939;50.060;14.288;2022-12-13T01:47:57;96806.00;;;-6.19;75.19
77003;BME280;65939;50.060;14.288;2022-12-13T01:48:35;96803.47;;;-6.19;74.88
77003;BME280;65939;50.060;14.288;2022-12-13T01:49:14;96801.78;;;-6.19;74.81
77003;BME280;65939;50.060;14.288;2022-12-13T01:49:46;96809.31;;;-6.17;75.04
77003;BME280;65939;50.060;14.288;2022-12-13T01:50:29;96803.41;;;-6.18;75.65
77003;BME280;65939;50.060;14.288;2022-12-13T01:51:04;96803.41;;;-6.18;74.94
77003;BME280;65939;50.060;14.288;2022-12-13T01:51:41;96797.50;;;-6.18;74.99
77003;BME280;65939;50.060;14.288;2022-12-13T01:52:14;96798.34;;;-6.18;75.30
77003;BME280;65939;50.060;14.288;2022-12-13T01:52:46;96799.16;;;-6.17;75.33
77003;BME280;65939;50.060;14.288;2022-12-13T01:53:21;96801.63;;;-6.16;75.30
77003;BME280;65939;50.060;14.288;2022-12-13T01:53:56;96796.53;;;-6.16;74.94
77003;BME280;65939;50.060;14.288;2022-12-13T01:54:33;96797.38;;;-6.15;75.18
77003;BME280;65939;50.060;14.288;2022-12-13T01:55:07;96796.53;;;-6.16;74.99
77003;BME280;65939;50.060;14.288;2022-12-13T01:55:41;96799.94;;;-6.15;75.11
77003;BME280;65939;50.060;14.288;2022-12-13T01:56:21;96803.28;;;-6.15;75.56
77003;BME280;65939;50.060;14.288;2022-12-13T01:56:54;96803.22;;;-6.13;75.08
77003;BME280;65939;50.060;14.288;2022-12-13T01:57:26;96801.50;;;-6.13;74.99
77003;BME280;65939;50.060;14.288;2022-12-13T01:58:01;96800.66;;;-6.13;74.70
77003;BME280;65939;50.060;14.288;2022-12-13T01:58:35;96804.94;;;-6.14;74.77
77003;BME280;65939;50.060;14.288;2022-12-13T01:59:10;96800.66;;;-6.13;74.80
77003;BME280;65939;50.060;14.288;2022-12-13T01:59:43;96795.59;;;-6.13;75.24
77003;BME280;65939;50.060;14.288;2022-12-13T02:00:15;96801.50;;;-6.13;74.92
77003;BME280;65939;50.060;14.288;2022-12-13T02:00:47;96800.66;;;-6.13;75.14
77003;BME280;65939;50.060;14.288;2022-12-13T02:01:18;96799.03;;;-6.14;74.69
77003;BME280;65939;50.060;14.288;2022-12-13T02:01:50;96803.22;;;-6.13;74.83
77003;BME280;65939;50.060;14.288;2022-12-13T02:02:21;96804.03;;;-6.13;75.07
77003;BME280;65939;50.060;14.288;2022-12-13T02:02:55;96801.50;;;-6.13;74.54
77003;BME280;65939;50.060;14.288;2022-12-13T02:03:27;96804.84;;;-6.12;74.73
77003;BME280;65939;50.060;14.288;2022-12-13T02:03:58;96807.38;;;-6.12;75.07
77003;BME280;65939;50.060;14.288;2022-12-13T02:04:44;96809.06;;;-6.11;74.99
77003;BME280;65939;50.060;14.288;2022-12-13T02:05:30;96809.88;;;-6.11;74.73
77003;BME280;65939;50.060;14.288;2022-12-13T02:06:06;96805.69;;;-6.12;74.60
77003;BME280;65939;50.060;14.288;2022-12-13T02:06:44;96805.69;;;-6.12;75.06
77003;BME280;65939;50.060;14.288;2022-12-13T02:07:19;96808.25;;;-6.12;74.71
77003;BME280;65939;50.060;14.288;2022-12-13T02:07:52;96806.53;;;-6.11;74.91
77003;BME280;65939;50.060;14.288;2022-12-13T02:08:23;96803.16;;;-6.12;75.06
77003;BME280;65939;50.060;14.288;2022-12-13T02:08:55;96806.53;;;-6.11;74.72
77003;BME280;65939;50.060;14.288;2022-12-13T02:09:26;96798.91;;;-6.11;74.79
77003;BME280;65939;50.060;14.288;2022-12-13T02:09:59;96804.81;;;-6.11;74.89
77003;BME280;65939;50.060;14.288;2022-12-13T02:10:31;96797.19;;;-6.11;74.56
77003;BME280;65939;50.060;14.288;2022-12-13T02:11:03;96802.25;;;-6.11;74.66
77003;BME280;65939;50.060;14.288;2022-12-13T02:11:38;96803.97;;;-6.11;74.70
77003;BME280;65939;50.060;14.288;2022-12-13T02:12:11;96798.06;;;-6.12;74.75
77003;BME280;65939;50.060;14.288;2022-12-13T02:12:42;96792.91;;;-6.10;74.74
77003;BME280;65939;50.060;14.288;2022-12-13T02:13:13;96794.63;;;-6.11;74.58
77003;BME280;65939;50.060;14.288;2022-12-13T02:13:44;96794.63;;;-6.11;74.96
77003;BME280;65939;50.060;14.288;2022-12-13T02:14:15;96801.34;;;-6.10;74.54
77003;BME280;65939;50.060;14.288;2022-12-13T02:14:46;96792.03;;;-6.09;74.51
77003;BME280;65939;50.060;14.288;2022-12-13T02:15:19;96792.84;;;-6.09;74.69
77003;BME280;65939;50.060;14.288;2022-12-13T02:17:23;96798.78;;;-6.08;74.69
77003;BME280;65939;50.060;14.288;2022-12-13T02:19:24;96798.78;;;-6.08;74.66
77003;BME280;65939;50.060;14.288;2022-12-13T02:20:19;96796.22;;;-6.08;74.88
77003;BME280;65939;50.060;14.288;2022-12-13T02:20:59;96801.22;;;-6.07;74.72
77003;BME280;65939;50.060;14.288;2022-12-13T02:22:03;96805.41;;;-6.06;74.42
77003;BME280;65939;50.060;14.288;2022-12-13T02:27:09;96813.03;;;-6.06;74.61
77003;BME280;65939;50.060;14.288;2022-12-13T02:30:18;96810.56;;;-6.07;74.30
77003;BME280;65939;50.060;14.288;2022-12-13T02:31:12;96811.47;;;-6.08;74.59
77003;BME280;65939;50.060;14.288;2022-12-13T02:32:56;96810.56;;;-6.07;74.22
77003;BME280;65939;50.060;14.288;2022-12-13T02:33:39;96808.94;;;-6.08;74.67
77003;BME280;65939;50.060;14.288;2022-12-13T02:34:23;96812.34;;;-6.09;74.55
77003;BME280;65939;50.060;14.288;2022-12-13T02:35:04;96809.81;;;-6.09;74.91
77003;BME280;65939;50.060;14.288;2022-12-13T02:35:58;96808.94;;;-6.08;74.32
77003;BME280;65939;50.060;14.288;2022-12-13T02:37:07;96810.63;;;-6.09;74.69
77003;BME280;65939;50.060;14.288;2022-12-13T02:37:49;96803.00;;;-6.09;74.17
77003;BME280;65939;50.060;14.288;2022-12-13T02:38:52;96808.94;;;-6.08;74.63
77003;BME280;65939;50.060;14.288;2022-12-13T02:39:31;96804.69;;;-6.08;74.75
77003;BME280;65939;50.060;14.288;2022-12-13T02:40:26;96809.75;;;-6.08;74.40
77003;BME280;65939;50.060;14.288;2022-12-13T02:41:48;96809.75;;;-6.08;74.58
77003;BME280;65939;50.060;14.288;2022-12-13T02:42:34;96804.72;;;-6.09;74.66
77003;BME280;65939;50.060;14.288;2022-12-13T02:43:22;96803.84;;;-6.08;74.60
77003;BME280;65939;50.060;14.288;2022-12-13T02:44:11;96807.22;;;-6.08;74.25
77003;BME280;65939;50.060;14.288;2022-12-13T02:44:56;96805.50;;;-6.07;74.29
77003;BME280;65939;50.060;14.288;2022-12-13T02:45:43;96803.00;;;-6.09;74.74
77003;BME280;65939;50.060;14.288;2022-12-13T02:46:20;96804.69;;;-6.08;74.37
77003;BME280;65939;50.060;14.288;2022-12-13T02:47:00;96798.78;;;-6.08;74.48
77003;BME280;65939;50.060;14.288;2022-12-13T02:47:33;96801.31;;;-6.08;74.46
77003;BME280;65939;50.060;14.288;2022-12-13T02:48:08;96797.91;;;-6.09;74.30
77003;BME280;65939;50.060;14.288;2022-12-13T02:48:41;96802.13;;;-6.08;74.27
77003;BME280;65939;50.060;14.288;2022-12-13T02:49:14;96800.41;;;-6.07;74.15
77003;BME280;65939;50.060;14.288;2022-12-13T02:49:50;96801.22;;;-6.07;74.50
77003;BME280;65939;50.060;14.288;2022-12-13T02:50:24;96795.34;;;-6.07;74.37
77003;BME280;65939;50.060;14.288;2022-12-13T02:50:58;96795.34;;;-6.07;74.02
77003;BME280;65939;50.060;14.288;2022-12-13T02:51:31;96796.97;;;-6.06;74.04
77003;BME280;65939;50.060;14.288;2022-12-13T02:52:08;96797.88;;;-6.07;74.45
77003;BME280;65939;50.060;14.288;2022-12-13T02:52:41;96795.34;;;-6.07;74.20
77003;BME280;65939;50.060;14.288;2022-12-13T02:53:16;96792.78;;;-6.07;74.18
77003;BME280;65939;50.060;14.288;2022-12-13T02:53:48;96790.25;;;-6.07;74.41
77003;BME280;65939;50.060;14.288;2022-12-13T02:54:19;96800.41;;;-6.07;74.10
77003;BME280;65939;50.060;14.288;2022-12-13T02:54:49;96790.25;;;-6.07;73.96
77003;BME280;65939;50.060;14.288;2022-12-13T02:55:20;96790.25;;;-6.07;74.05
77003;BME280;65939;50.060;14.288;2022-12-13T02:55:51;96792.84;;;-6.09;74.39
77003;BME280;65939;50.060;14.288;2022-12-13T02:56:22;96797.88;;;-6.07;74.16
77003;BME280;65939;50.060;14.288;2022-12-13T02:56:57;96789.44;;;-6.08;74.41
77003;BME280;65939;50.060;14.288;2022-12-13T02:58:00;96786.06;;;-6.08;74.24
77003;BME280;65939;50.060;14.288;2022-12-13T02:58:39;96789.47;;;-6.09;73.95
77003;BME280;65939;50.060;14.288;2022-12-13T02:59:13;96788.59;;;-6.08;73.88
77003;BME280;65939;50.060;14.288;2022-12-13T02:59:45;96792.03;;;-6.09;74.09
77003;BME280;65939;50.060;14.288;2022-12-13T03:00:20;96788.75;;;-6.11;74.11
77003;BME280;65939;50.060;14.288;2022-12-13T03:01:15;96783.56;;;-6.10;74.17
77003;BME280;65939;50.060;14.288;2022-12-13T03:02:24;96789.56;;;-6.11;73.62
77003;BME280;65939;50.060;14.288;2022-12-13T03:03:24;96785.38;;;-6.12;73.94
77003;BME280;65939;50.060;14.288;2022-12-13T03:04:53;96783.72;;;-6.13;73.49
77003;BME280;65939;50.060;14.288;2022-12-13T03:06:47;96782.97;;;-6.15;73.78
77003;BME280;65939;50.060;14.288;2022-12-13T03:07:32;96775.41;;;-6.16;73.59
77003;BME280;65939;50.060;14.288;2022-12-13T03:08:20;96778.84;;;-6.17;73.68
77003;BME280;65939;50.060;14.288;2022-12-13T03:09:18;96782.28;;;-6.18;74.00
77003;BME280;65939;50.060;14.288;2022-12-13T03:10:05;96781.38;;;-6.17;73.35
77003;BME280;65939;50.060;14.288;2022-12-13T03:11:20;96778.06;;;-6.19;73.61
77003;BME280;65939;50.060;14.288;2022-12-13T03:13:13;96779.03;;;-6.22;73.64
77003;BME280;65939;50.060;14.288;2022-12-13T03:14:10;96778.22;;;-6.22;73.78
77003;BME280;65939;50.060;14.288;2022-12-13T03:14:55;96776.53;;;-6.23;73.54
77003;BME280;65939;50.060;14.288;2022-12-13T03:16:04;96780.06;;;-6.26;73.58
77003;BME280;65939;50.060;14.288;2022-12-13T03:16:43;96780.88;;;-6.25;73.67
77003;BME280;65939;50.060;14.288;2022-12-13T03:17:17;96780.94;;;-6.27;73.64